sensor_id;sensor_type;location;lat;lon;timestamp;P1;durP1;ratioP1;P2;durP2;ratioP2
35606;SDS011;21729;58.392;15.656;2022-11-03T00:01:06;3.85;;;0.68;;
35606;SDS011;21729;58.392;15.656;2022-11-03T00:03:33;7.07;;;1.20;;
35606;SDS011;21729;58.392;15.656;2022-11-03T00:06:01;3.92;;;1.20;;
35606;SDS011;21729;58.392;15.656;2022-11-03T00:08:33;6.38;;;1.00;;
35606;SDS011;21729;58.392;15.656;2022-11-03T00:11:06;5.93;;;1.13;;
35606;SDS011;21729;58.392;15.656;2022-11-03T00:13:35;4.85;;;1.05;;
35606;SDS011;21729;58.392;15.656;2022-11-03T00:16:03;4.60;;;1.13;;
35606;SDS011;21729;58.392;15.656;2022-11-03T00:18:31;5.22;;;1.20;;
35606;SDS011;21729;58.392;15.656;2022-11-03T00:20:59;6.53;;;1.37;;
35606;SDS011;21729;58.392;15.656;2022-11-03T00:23:28;6.90;;;0.80;;
35606;SDS011;21729;58.392;15.656;2022-11-03T00:26:06;5.37;;;1.03;;
35606;SDS011;21729;58.392;15.656;2022-11-03T00:28:35;5.28;;;1.10;;
35606;SDS011;21729;58.392;15.656;2022-11-03T00:31:05;4.30;;;0.98;;
35606;SDS011;21729;58.392;15.656;2022-11-03T00:33:33;6.65;;;1.02;;
35606;SDS011;21729;58.392;15.656;2022-11-03T00:36:01;7.10;;;1.30;;
35606;SDS011;21729;58.392;15.656;2022-11-03T00:38:28;8.70;;;1.33;;
35606;SDS011;21729;58.392;15.656;2022-11-03T00:40:56;5.07;;;1.30;;
35606;SDS011;21729;58.392;15.656;2022-11-03T00:43:26;7.90;;;1.40;;
35606;SDS011;21729;58.392;15.656;2022-11-03T00:45:55;6.20;;;1.30;;
35606;SDS011;21729;58.392;15.656;2022-11-03T00:48:22;6.03;;;1.20;;
35606;SDS011;21729;58.392;15.656;2022-11-03T00:50:59;4.78;;;1.20;;
35606;SDS011;21729;58.392;15.656;2022-11-03T00:53:31;5.30;;;1.30;;
35606;SDS011;21729;58.392;15.656;2022-11-03T00:55:59;5.20;;;1.05;;
35606;SDS011;21729;58.392;15.656;2022-11-03T00:58:28;6.65;;;1.02;;
35606;SDS011;21729;58.392;15.656;2022-11-03T01:01:02;6.63;;;1.40;;
35606;SDS011;21729;58.392;15.656;2022-11-03T01:03:31;5.57;;;1.30;;
35606;SDS011;21729;58.392;15.656;2022-11-03T01:06:00;9.23;;;1.48;;
35606;SDS011;21729;58.392;15.656;2022-11-03T01:08:44;7.83;;;1.10;;
35606;SDS011;21729;58.392;15.656;2022-11-03T01:11:12;8.85;;;1.35;;
35606;SDS011;21729;58.392;15.656;2022-11-03T01:14:02;8.75;;;1.30;;
35606;SDS011;21729;58.392;15.656;2022-11-03T01:16:29;7.20;;;1.27;;
35606;SDS011;21729;58.392;15.656;2022-11-03T01:18:57;10.43;;;1.48;;
35606;SDS011;21729;58.392;15.656;2022-11-03T01:21:24;4.20;;;0.88;;
35606;SDS011;21729;58.392;15.656;2022-11-03T01:23:51;4.30;;;0.93;;
35606;SDS011;21729;58.392;15.656;2022-11-03T01:26:18;7.80;;;1.50;;
35606;SDS011;21729;58.392;15.656;2022-11-03T01:28:46;4.68;;;1.05;;
35606;SDS011;21729;58.392;15.656;2022-11-03T01:31:16;7.95;;;1.40;;
35606;SDS011;21729;58.392;15.656;2022-11-03T01:33:44;4.60;;;0.90;;
35606;SDS011;21729;58.392;15.656;2022-11-03T01:36:12;6.50;;;1.30;;
35606;SDS011;21729;58.392;15.656;2022-11-03T01:38:40;7.22;;;1.10;;
35606;SDS011;21729;58.392;15.656;2022-11-03T01:41:09;5.40;;;1.02;;
35606;SDS011;21729;58.392;15.656;2022-11-03T01:43:38;5.43;;;1.30;;
35606;SDS011;21729;58.392;15.656;2022-11-03T01:46:07;10.98;;;1.42;;
35606;SDS011;21729;58.392;15.656;2022-11-03T01:48:45;10.30;;;1.77;;
35606;SDS011;21729;58.392;15.656;2022-11-03T01:51:24;5.78;;;1.13;;
35606;SDS011;21729;58.392;15.656;2022-11-03T01:53:54;8.98;;;1.05;;
35606;SDS011;21729;58.392;15.656;2022-11-03T01:56:23;7.25;;;1.10;;
35606;SDS011;21729;58.392;15.656;2022-11-03T01:58:52;8.65;;;1.58;;
35606;SDS011;21729;58.392;15.656;2022-11-03T02:01:20;5.22;;;1.23;;
35606;SDS011;21729;58.392;15.656;2022-11-03T02:03:50;7.50;;;1.20;;
35606;SDS011;21729;58.392;15.656;2022-11-03T02:06:20;6.53;;;1.40;;
35606;SDS011;21729;58.392;15.656;2022-11-03T02:08:51;8.32;;;1.67;;
35606;SDS011;21729;58.392;15.656;2022-11-03T02:11:22;8.13;;;1.00;;
35606;SDS011;21729;58.392;15.656;2022-11-03T02:14:09;5.72;;;1.20;;
35606;SDS011;21729;58.392;15.656;2022-11-03T02:16:37;7.07;;;1.10;;
35606;SDS011;21729;58.392;15.656;2022-11-03T02:19:09;14.02;;;1.42;;
35606;SDS011;21729;58.392;15.656;2022-11-03T02:21:46;8.13;;;1.23;;
35606;SDS011;21729;58.392;15.656;2022-11-03T02:24:22;6.07;;;1.20;;
35606;SDS011;21729;58.392;15.656;2022-11-03T02:26:56;4.80;;;1.33;;
35606;SDS011;21729;58.392;15.656;2022-11-03T02:29:23;4.53;;;1.00;;
35606;SDS011;21729;58.392;15.656;2022-11-03T02:31:52;8.48;;;1.20;;
35606;SDS011;21729;58.392;15.656;2022-11-03T02:34:25;6.70;;;1.38;;
35606;SDS011;21729;58.392;15.656;2022-11-03T02:36:57;3.20;;;1.10;;
35606;SDS011;21729;58.392;15.656;2022-11-03T02:39:30;6.30;;;1.63;;
35606;SDS011;21729;58.392;15.656;2022-11-03T02:42:03;8.07;;;1.38;;
35606;SDS011;21729;58.392;15.656;2022-11-03T02:44:32;7.35;;;1.13;;
35606;SDS011;21729;58.392;15.656;2022-11-03T02:47:00;6.65;;;1.23;;
35606;SDS011;21729;58.392;15.656;2022-11-03T02:49:36;8.75;;;1.30;;
35606;SDS011;21729;58.392;15.656;2022-11-03T02:52:04;5.20;;;1.23;;
35606;SDS011;21729;58.392;15.656;2022-11-03T02:54:32;6.05;;;1.17;;
35606;SDS011;21729;58.392;15.656;2022-11-03T02:57:04;7.90;;;1.35;;
35606;SDS011;21729;58.392;15.656;2022-11-03T02:59:37;6.20;;;1.20;;
35606;SDS011;21729;58.392;15.656;2022-11-03T03:02:10;7.53;;;1.35;;
35606;SDS011;21729;58.392;15.656;2022-11-03T03:04:44;12.35;;;1.23;;
35606;SDS011;21729;58.392;15.656;2022-11-03T03:07:16;6.07;;;1.00;;
35606;SDS011;21729;58.392;15.656;2022-11-03T03:10:02;5.05;;;1.33;;
35606;SDS011;21729;58.392;15.656;2022-11-03T03:12:35;8.93;;;1.30;;
35606;SDS011;21729;58.392;15.656;2022-11-03T03:15:06;10.23;;;1.35;;
35606;SDS011;21729;58.392;15.656;2022-11-03T03:17:36;5.63;;;1.23;;
35606;SDS011;21729;58.392;15.656;2022-11-03T03:20:11;3.23;;;1.17;;
35606;SDS011;21729;58.392;15.656;2022-11-03T03:22:44;7.18;;;1.27;;
35606;SDS011;21729;58.392;15.656;2022-11-03T03:25:17;6.68;;;1.42;;
35606;SDS011;21729;58.392;15.656;2022-11-03T03:27:51;8.35;;;1.70;;
35606;SDS011;21729;58.392;15.656;2022-11-03T03:30:23;6.25;;;1.30;;
35606;SDS011;21729;58.392;15.656;2022-11-03T03:32:51;5.82;;;1.23;;
35606;SDS011;21729;58.392;15.656;2022-11-03T03:35:20;5.65;;;1.27;;
35606;SDS011;21729;58.392;15.656;2022-11-03T03:37:50;7.93;;;1.05;;
35606;SDS011;21729;58.392;15.656;2022-11-03T03:40:23;8.80;;;1.00;;
35606;SDS011;21729;58.392;15.656;2022-11-03T03:42:55;4.57;;;0.80;;
35606;SDS011;21729;58.392;15.656;2022-11-03T03:45:23;8.20;;;1.10;;
35606;SDS011;21729;58.392;15.656;2022-11-03T03:47:51;5.20;;;1.23;;
35606;SDS011;21729;58.392;15.656;2022-11-03T03:50:19;4.30;;;0.95;;
35606;SDS011;21729;58.392;15.656;2022-11-03T03:52:47;4.60;;;1.20;;
35606;SDS011;21729;58.392;15.656;2022-11-03T03:55:15;10.40;;;1.63;;
35606;SDS011;21729;58.392;15.656;2022-11-03T03:57:43;8.55;;;0.98;;
35606;SDS011;21729;58.392;15.656;2022-11-03T04:00:13;3.63;;;1.08;;
35606;SDS011;21729;58.392;15.656;2022-11-03T04:02:41;5.75;;;1.20;;
35606;SDS011;21729;58.392;15.656;2022-11-03T04:05:08;7.45;;;1.15;;
35606;SDS011;21729;58.392;15.656;2022-11-03T04:07:35;5.45;;;1.45;;
35606;SDS011;21729;58.392;15.656;2022-11-03T04:10:14;7.57;;;1.40;;
35606;SDS011;21729;58.392;15.656;2022-11-03T04:12:42;6.40;;;1.63;;
35606;SDS011;21729;58.392;15.656;2022-11-03T04:15:25;11.15;;;1.45;;
35606;SDS011;21729;58.392;15.656;2022-11-03T04:18:09;5.63;;;1.30;;
35606;SDS011;21729;58.392;15.656;2022-11-03T04:20:54;7.28;;;1.23;;
35606;SDS011;21729;58.392;15.656;2022-11-03T04:23:38;9.38;;;1.50;;
35606;SDS011;21729;58.392;15.656;2022-11-03T04:26:09;9.38;;;1.40;;
35606;SDS011;21729;58.392;15.656;2022-11-03T04:28:37;6.93;;;1.25;;
35606;SDS011;21729;58.392;15.656;2022-11-03T04:31:08;10.40;;;1.65;;
35606;SDS011;21729;58.392;15.656;2022-11-03T04:33:36;8.35;;;1.40;;
35606;SDS011;21729;58.392;15.656;2022-11-03T04:36:04;8.45;;;1.40;;
35606;SDS011;21729;58.392;15.656;2022-11-03T04:38:37;12.02;;;1.60;;
35606;SDS011;21729;58.392;15.656;2022-11-03T04:41:06;6.07;;;1.20;;
35606;SDS011;21729;58.392;15.656;2022-11-03T04:43:38;6.82;;;1.30;;
35606;SDS011;21729;58.392;15.656;2022-11-03T04:46:08;5.00;;;1.23;;
35606;SDS011;21729;58.392;15.656;2022-11-03T04:48:36;13.75;;;1.70;;
35606;SDS011;21729;58.392;15.656;2022-11-03T04:51:09;8.80;;;1.40;;
35606;SDS011;21729;58.392;15.656;2022-11-03T04:53:39;7.75;;;1.55;;
35606;SDS011;21729;58.392;15.656;2022-11-03T04:56:13;7.93;;;1.48;;
35606;SDS011;21729;58.392;15.656;2022-11-03T04:58:42;13.32;;;1.65;;
35606;SDS011;21729;58.392;15.656;2022-11-03T05:01:14;7.25;;;1.50;;
35606;SDS011;21729;58.392;15.656;2022-11-03T05:03:45;5.23;;;1.60;;
35606;SDS011;21729;58.392;15.656;2022-11-03T05:06:14;9.20;;;1.60;;
35606;SDS011;21729;58.392;15.656;2022-11-03T05:08:44;8.93;;;1.60;;
35606;SDS011;21729;58.392;15.656;2022-11-03T05:11:14;9.65;;;1.50;;
35606;SDS011;21729;58.392;15.656;2022-11-03T05:13:46;8.20;;;1.50;;
35606;SDS011;21729;58.392;15.656;2022-11-03T05:16:16;11.70;;;1.60;;
35606;SDS011;21729;58.392;15.656;2022-11-03T05:18:44;9.70;;;1.90;;
35606;SDS011;21729;58.392;15.656;2022-11-03T05:21:14;8.80;;;1.70;;
35606;SDS011;21729;58.392;15.656;2022-11-03T05:23:45;9.88;;;1.40;;
35606;SDS011;21729;58.392;15.656;2022-11-03T05:26:16;11.90;;;2.00;;
35606;SDS011;21729;58.392;15.656;2022-11-03T05:28:46;7.57;;;1.73;;
35606;SDS011;21729;58.392;15.656;2022-11-03T05:31:23;11.27;;;1.60;;
35606;SDS011;21729;58.392;15.656;2022-11-03T05:33:55;10.70;;;1.70;;
35606;SDS011;21729;58.392;15.656;2022-11-03T05:36:24;11.57;;;1.60;;
35606;SDS011;21729;58.392;15.656;2022-11-03T05:38:54;11.33;;;1.70;;
35606;SDS011;21729;58.392;15.656;2022-11-03T05:41:24;10.48;;;1.98;;
35606;SDS011;21729;58.392;15.656;2022-11-03T05:43:56;8.93;;;1.80;;
35606;SDS011;21729;58.392;15.656;2022-11-03T05:46:27;6.97;;;1.85;;
35606;SDS011;21729;58.392;15.656;2022-11-03T05:48:56;11.10;;;2.00;;
35606;SDS011;21729;58.392;15.656;2022-11-03T05:51:28;10.88;;;2.03;;
35606;SDS011;21729;58.392;15.656;2022-11-03T05:53:59;12.15;;;1.60;;
35606;SDS011;21729;58.392;15.656;2022-11-03T05:56:30;8.45;;;1.55;;
35606;SDS011;21729;58.392;15.656;2022-11-03T05:58:58;10.07;;;1.77;;
35606;SDS011;21729;58.392;15.656;2022-11-03T06:01:29;11.82;;;1.63;;
35606;SDS011;21729;58.392;15.656;2022-11-03T06:03:58;9.02;;;1.80;;
35606;SDS011;21729;58.392;15.656;2022-11-03T06:06:26;11.15;;;1.40;;
35606;SDS011;21729;58.392;15.656;2022-11-03T06:08:58;11.73;;;2.30;;
35606;SDS011;21729;58.392;15.656;2022-11-03T06:11:27;6.63;;;1.55;;
35606;SDS011;21729;58.392;15.656;2022-11-03T06:13:58;10.48;;;1.60;;
35606;SDS011;21729;58.392;15.656;2022-11-03T06:16:36;9.68;;;1.58;;
35606;SDS011;21729;58.392;15.656;2022-11-03T06:19:19;6.85;;;1.90;;
35606;SDS011;21729;58.392;15.656;2022-11-03T06:21:49;11.20;;;1.60;;
35606;SDS011;21729;58.392;15.656;2022-11-03T06:24:18;5.93;;;1.48;;
35606;SDS011;21729;58.392;15.656;2022-11-03T06:26:48;14.60;;;1.60;;
35606;SDS011;21729;58.392;15.656;2022-11-03T06:29:17;5.43;;;1.30;;
35606;SDS011;21729;58.392;15.656;2022-11-03T06:31:47;8.40;;;1.70;;
35606;SDS011;21729;58.392;15.656;2022-11-03T06:34:19;6.72;;;1.70;;
35606;SDS011;21729;58.392;15.656;2022-11-03T06:36:55;8.73;;;1.50;;
35606;SDS011;21729;58.392;15.656;2022-11-03T06:39:23;10.13;;;2.00;;
35606;SDS011;21729;58.392;15.656;2022-11-03T06:41:50;10.20;;;1.65;;
35606;SDS011;21729;58.392;15.656;2022-11-03T06:44:19;9.77;;;1.58;;
35606;SDS011;21729;58.392;15.656;2022-11-03T06:46:51;8.95;;;1.67;;
35606;SDS011;21729;58.392;15.656;2022-11-03T06:49:24;11.60;;;1.67;;
35606;SDS011;21729;58.392;15.656;2022-11-03T06:51:54;10.77;;;1.70;;
35606;SDS011;21729;58.392;15.656;2022-11-03T06:54:21;6.35;;;1.40;;
35606;SDS011;21729;58.392;15.656;2022-11-03T06:56:48;7.82;;;1.67;;
35606;SDS011;21729;58.392;15.656;2022-11-03T06:59:15;4.00;;;1.45;;
35606;SDS011;21729;58.392;15.656;2022-11-03T07:01:45;9.82;;;1.48;;
35606;SDS011;21729;58.392;15.656;2022-11-03T07:04:17;11.45;;;1.63;;
35606;SDS011;21729;58.392;15.656;2022-11-03T07:06:46;7.53;;;1.33;;
35606;SDS011;21729;58.392;15.656;2022-11-03T07:09:14;9.45;;;1.40;;
35606;SDS011;21729;58.392;15.656;2022-11-03T07:11:45;11.52;;;1.50;;
35606;SDS011;21729;58.392;15.656;2022-11-03T07:14:17;7.78;;;1.20;;
35606;SDS011;21729;58.392;15.656;2022-11-03T07:16:47;8.07;;;1.50;;
35606;SDS011;21729;58.392;15.656;2022-11-03T07:19:18;5.85;;;1.30;;
35606;SDS011;21729;58.392;15.656;2022-11-03T07:21:49;7.78;;;1.80;;
35606;SDS011;21729;58.392;15.656;2022-11-03T07:24:18;9.55;;;1.90;;
35606;SDS011;21729;58.392;15.656;2022-11-03T07:26:47;7.15;;;1.55;;
35606;SDS011;21729;58.392;15.656;2022-11-03T07:29:19;8.32;;;2.08;;
35606;SDS011;21729;58.392;15.656;2022-11-03T07:31:48;7.32;;;1.60;;
35606;SDS011;21729;58.392;15.656;2022-11-03T07:34:19;5.70;;;1.40;;
35606;SDS011;21729;58.392;15.656;2022-11-03T07:36:49;10.52;;;1.30;;
35606;SDS011;21729;58.392;15.656;2022-11-03T07:39:18;11.20;;;1.55;;
35606;SDS011;21729;58.392;15.656;2022-11-03T07:41:46;6.45;;;1.17;;
35606;SDS011;21729;58.392;15.656;2022-11-03T07:44:15;4.88;;;1.20;;
35606;SDS011;21729;58.392;15.656;2022-11-03T07:46:46;10.13;;;1.90;;
35606;SDS011;21729;58.392;15.656;2022-11-03T07:49:20;5.10;;;1.30;;
35606;SDS011;21729;58.392;15.656;2022-11-03T07:51:51;6.17;;;1.30;;
35606;SDS011;21729;58.392;15.656;2022-11-03T07:54:19;6.28;;;1.15;;
35606;SDS011;21729;58.392;15.656;2022-11-03T07:56:51;5.10;;;1.30;;
35606;SDS011;21729;58.392;15.656;2022-11-03T07:59:20;6.00;;;1.20;;
35606;SDS011;21729;58.392;15.656;2022-11-03T08:01:50;7.18;;;1.10;;
35606;SDS011;21729;58.392;15.656;2022-11-03T08:04:20;7.05;;;1.23;;
35606;SDS011;21729;58.392;15.656;2022-11-03T08:06:49;6.88;;;1.20;;
35606;SDS011;21729;58.392;15.656;2022-11-03T08:09:16;4.53;;;1.23;;
35606;SDS011;21729;58.392;15.656;2022-11-03T08:11:43;7.72;;;1.40;;
35606;SDS011;21729;58.392;15.656;2022-11-03T08:14:11;8.15;;;1.40;;
35606;SDS011;21729;58.392;15.656;2022-11-03T08:16:38;4.22;;;1.50;;
35606;SDS011;21729;58.392;15.656;2022-11-03T08:19:06;6.35;;;1.50;;
35606;SDS011;21729;58.392;15.656;2022-11-03T08:21:34;4.20;;;1.60;;
35606;SDS011;21729;58.392;15.656;2022-11-03T08:24:02;4.63;;;1.10;;
35606;SDS011;21729;58.392;15.656;2022-11-03T08:26:29;7.65;;;1.42;;
35606;SDS011;21729;58.392;15.656;2022-11-03T08:28:56;8.98;;;1.30;;
35606;SDS011;21729;58.392;15.656;2022-11-03T08:31:23;3.37;;;1.40;;
35606;SDS011;21729;58.392;15.656;2022-11-03T08:33:51;4.30;;;1.13;;
35606;SDS011;21729;58.392;15.656;2022-11-03T08:36:18;6.93;;;1.13;;
35606;SDS011;21729;58.392;15.656;2022-11-03T08:38:47;5.30;;;1.40;;
35606;SDS011;21729;58.392;15.656;2022-11-03T08:41:14;6.90;;;1.38;;
35606;SDS011;21729;58.392;15.656;2022-11-03T08:43:42;6.95;;;1.63;;
35606;SDS011;21729;58.392;15.656;2022-11-03T08:46:09;4.70;;;1.25;;
35606;SDS011;21729;58.392;15.656;2022-11-03T08:48:36;6.38;;;1.20;;
35606;SDS011;21729;58.392;15.656;2022-11-03T08:51:03;6.55;;;1.48;;
35606;SDS011;21729;58.392;15.656;2022-11-03T08:53:32;6.45;;;1.45;;
35606;SDS011;21729;58.392;15.656;2022-11-03T08:56:00;5.68;;;1.25;;
35606;SDS011;21729;58.392;15.656;2022-11-03T08:58:27;4.47;;;1.35;;
35606;SDS011;21729;58.392;15.656;2022-11-03T09:00:54;6.10;;;1.52;;
35606;SDS011;21729;58.392;15.656;2022-11-03T09:03:22;8.00;;;1.55;;
35606;SDS011;21729;58.392;15.656;2022-11-03T09:05:49;9.98;;;1.58;;
35606;SDS011;21729;58.392;15.656;2022-11-03T09:08:16;6.50;;;1.85;;
35606;SDS011;21729;58.392;15.656;2022-11-03T09:10:43;7.10;;;1.60;;
35606;SDS011;21729;58.392;15.656;2022-11-03T09:13:12;5.70;;;1.52;;
35606;SDS011;21729;58.392;15.656;2022-11-03T09:15:39;9.35;;;1.63;;
35606;SDS011;21729;58.392;15.656;2022-11-03T09:18:06;5.88;;;1.90;;
35606;SDS011;21729;58.392;15.656;2022-11-03T09:20:33;6.80;;;1.60;;
35606;SDS011;21729;58.392;15.656;2022-11-03T09:23:00;6.20;;;1.50;;
35606;SDS011;21729;58.392;15.656;2022-11-03T09:25:27;5.55;;;1.30;;
35606;SDS011;21729;58.392;15.656;2022-11-03T09:27:54;5.75;;;1.60;;
35606;SDS011;21729;58.392;15.656;2022-11-03T09:30:22;6.25;;;1.70;;
35606;SDS011;21729;58.392;15.656;2022-11-03T09:32:49;5.32;;;1.40;;
35606;SDS011;21729;58.392;15.656;2022-11-03T09:35:17;4.43;;;1.30;;
35606;SDS011;21729;58.392;15.656;2022-11-03T09:37:44;7.53;;;1.45;;
35606;SDS011;21729;58.392;15.656;2022-11-03T09:40:12;5.75;;;1.63;;
35606;SDS011;21729;58.392;15.656;2022-11-03T09:42:41;10.30;;;2.40;;
35606;SDS011;21729;58.392;15.656;2022-11-03T09:45:08;8.27;;;1.60;;
35606;SDS011;21729;58.392;15.656;2022-11-03T09:47:38;9.75;;;1.80;;
35606;SDS011;21729;58.392;15.656;2022-11-03T09:50:10;5.28;;;1.55;;
35606;SDS011;21729;58.392;15.656;2022-11-03T09:52:39;9.15;;;1.40;;
35606;SDS011;21729;58.392;15.656;2022-11-03T09:55:12;8.20;;;1.57;;
35606;SDS011;21729;58.392;15.656;2022-11-03T09:57:41;5.22;;;1.52;;
35606;SDS011;21729;58.392;15.656;2022-11-03T10:00:12;7.82;;;1.33;;
35606;SDS011;21729;58.392;15.656;2022-11-03T10:02:46;6.18;;;1.40;;
35606;SDS011;21729;58.392;15.656;2022-11-03T10:05:15;5.10;;;1.47;;
35606;SDS011;21729;58.392;15.656;2022-11-03T10:07:48;5.17;;;1.60;;
35606;SDS011;21729;58.392;15.656;2022-11-03T10:10:16;5.72;;;1.35;;
35606;SDS011;21729;58.392;15.656;2022-11-03T10:12:44;9.40;;;1.75;;
35606;SDS011;21729;58.392;15.656;2022-11-03T10:15:13;4.78;;;1.30;;
35606;SDS011;21729;58.392;15.656;2022-11-03T10:17:41;9.70;;;2.08;;
35606;SDS011;21729;58.392;15.656;2022-11-03T10:20:11;7.67;;;1.93;;
35606;SDS011;21729;58.392;15.656;2022-11-03T10:22:40;8.65;;;1.60;;
35606;SDS011;21729;58.392;15.656;2022-11-03T10:28:15;7.50;;;1.40;;
35606;SDS011;21729;58.392;15.656;2022-11-03T10:30:47;6.28;;;1.27;;
35606;SDS011;21729;58.392;15.656;2022-11-03T10:33:28;6.68;;;1.45;;
35606;SDS011;21729;58.392;15.656;2022-11-03T10:35:58;6.90;;;1.63;;
35606;SDS011;21729;58.392;15.656;2022-11-03T10:38:27;4.97;;;1.67;;
35606;SDS011;21729;58.392;15.656;2022-11-03T10:40:56;5.57;;;1.53;;
35606;SDS011;21729;58.392;15.656;2022-11-03T10:43:35;5.85;;;1.63;;
35606;SDS011;21729;58.392;15.656;2022-11-03T10:46:08;9.63;;;1.98;;
35606;SDS011;21729;58.392;15.656;2022-11-03T10:48:37;5.88;;;1.50;;
35606;SDS011;21729;58.392;15.656;2022-11-03T10:51:06;5.67;;;1.43;;
35606;SDS011;21729;58.392;15.656;2022-11-03T10:53:36;7.50;;;1.70;;
35606;SDS011;21729;58.392;15.656;2022-11-03T10:56:03;6.22;;;1.80;;
35606;SDS011;21729;58.392;15.656;2022-11-03T10:58:31;4.68;;;1.70;;
35606;SDS011;21729;58.392;15.656;2022-11-03T11:00:58;9.38;;;2.08;;
35606;SDS011;21729;58.392;15.656;2022-11-03T11:03:26;5.67;;;1.80;;
35606;SDS011;21729;58.392;15.656;2022-11-03T11:05:53;8.95;;;1.85;;
35606;SDS011;21729;58.392;15.656;2022-11-03T11:08:22;8.40;;;1.88;;
35606;SDS011;21729;58.392;15.656;2022-11-03T11:10:49;5.88;;;2.00;;
35606;SDS011;21729;58.392;15.656;2022-11-03T11:13:26;5.47;;;1.83;;
35606;SDS011;21729;58.392;15.656;2022-11-03T11:15:55;6.05;;;1.98;;
35606;SDS011;21729;58.392;15.656;2022-11-03T11:21:57;7.53;;;2.20;;
35606;SDS011;21729;58.392;15.656;2022-11-03T11:33:30;6.90;;;1.83;;
35606;SDS011;21729;58.392;15.656;2022-11-03T11:38:57;4.85;;;1.80;;
35606;SDS011;21729;58.392;15.656;2022-11-03T11:47:26;4.20;;;1.73;;
35606;SDS011;21729;58.392;15.656;2022-11-03T11:52:57;8.43;;;1.97;;
35606;SDS011;21729;58.392;15.656;2022-11-03T11:55:30;4.35;;;1.95;;
35606;SDS011;21729;58.392;15.656;2022-11-03T11:58:01;6.82;;;2.00;;
35606;SDS011;21729;58.392;15.656;2022-11-03T12:00:31;5.78;;;2.00;;
35606;SDS011;21729;58.392;15.656;2022-11-03T12:03:00;7.13;;;1.90;;
35606;SDS011;21729;58.392;15.656;2022-11-03T12:05:30;5.00;;;2.00;;
35606;SDS011;21729;58.392;15.656;2022-11-03T12:07:58;8.80;;;2.08;;
35606;SDS011;21729;58.392;15.656;2022-11-03T12:10:26;4.97;;;1.80;;
35606;SDS011;21729;58.392;15.656;2022-11-03T12:12:55;10.00;;;2.25;;
35606;SDS011;21729;58.392;15.656;2022-11-03T12:18:27;6.75;;;2.03;;
35606;SDS011;21729;58.392;15.656;2022-11-03T12:20:58;8.18;;;2.30;;
35606;SDS011;21729;58.392;15.656;2022-11-03T12:23:35;5.15;;;1.85;;
35606;SDS011;21729;58.392;15.656;2022-11-03T12:26:13;6.28;;;1.90;;
35606;SDS011;21729;58.392;15.656;2022-11-03T12:28:41;8.27;;;2.10;;
35606;SDS011;21729;58.392;15.656;2022-11-03T12:31:10;8.40;;;1.88;;
35606;SDS011;21729;58.392;15.656;2022-11-03T12:33:38;8.07;;;2.20;;
35606;SDS011;21729;58.392;15.656;2022-11-03T12:36:05;7.53;;;2.10;;
35606;SDS011;21729;58.392;15.656;2022-11-03T12:38:33;5.35;;;2.10;;
35606;SDS011;21729;58.392;15.656;2022-11-03T12:41:00;7.18;;;2.08;;
35606;SDS011;21729;58.392;15.656;2022-11-03T12:43:45;8.07;;;2.08;;
35606;SDS011;21729;58.392;15.656;2022-11-03T12:46:15;9.25;;;2.25;;
35606;SDS011;21729;58.392;15.656;2022-11-03T12:48:43;6.35;;;2.00;;
35606;SDS011;21729;58.392;15.656;2022-11-03T12:51:11;7.85;;;2.20;;
35606;SDS011;21729;58.392;15.656;2022-11-03T12:53:39;6.75;;;2.25;;
35606;SDS011;21729;58.392;15.656;2022-11-03T12:56:07;6.68;;;2.22;;
35606;SDS011;21729;58.392;15.656;2022-11-03T12:58:35;6.75;;;2.20;;
35606;SDS011;21729;58.392;15.656;2022-11-03T13:01:02;6.20;;;2.08;;
35606;SDS011;21729;58.392;15.656;2022-11-03T13:03:31;6.55;;;2.28;;
35606;SDS011;21729;58.392;15.656;2022-11-03T13:05:59;6.40;;;2.10;;
35606;SDS011;21729;58.392;15.656;2022-11-03T13:08:28;7.18;;;2.35;;
35606;SDS011;21729;58.392;15.656;2022-11-03T13:10:56;7.65;;;2.28;;
35606;SDS011;21729;58.392;15.656;2022-11-03T13:13:23;6.82;;;2.00;;
35606;SDS011;21729;58.392;15.656;2022-11-03T13:15:50;6.60;;;2.10;;
35606;SDS011;21729;58.392;15.656;2022-11-03T13:18:17;8.38;;;2.13;;
35606;SDS011;21729;58.392;15.656;2022-11-03T13:20:46;5.90;;;2.30;;
35606;SDS011;21729;58.392;15.656;2022-11-03T13:23:13;7.63;;;2.47;;
35606;SDS011;21729;58.392;15.656;2022-11-03T13:25:40;6.07;;;2.00;;
35606;SDS011;21729;58.392;15.656;2022-11-03T13:28:07;6.63;;;2.33;;
35606;SDS011;21729;58.392;15.656;2022-11-03T13:30:34;7.13;;;2.00;;
35606;SDS011;21729;58.392;15.656;2022-11-03T13:33:01;6.40;;;2.10;;
35606;SDS011;21729;58.392;15.656;2022-11-03T13:35:28;4.63;;;2.10;;
35606;SDS011;21729;58.392;15.656;2022-11-03T13:37:57;5.53;;;2.25;;
35606;SDS011;21729;58.392;15.656;2022-11-03T13:40:24;6.65;;;2.35;;
35606;SDS011;21729;58.392;15.656;2022-11-03T13:42:51;4.37;;;1.80;;
35606;SDS011;21729;58.392;15.656;2022-11-03T13:45:18;8.67;;;2.17;;
35606;SDS011;21729;58.392;15.656;2022-11-03T13:47:45;5.00;;;1.85;;
35606;SDS011;21729;58.392;15.656;2022-11-03T13:50:12;8.00;;;2.05;;
35606;SDS011;21729;58.392;15.656;2022-11-03T13:52:39;6.53;;;2.08;;
35606;SDS011;21729;58.392;15.656;2022-11-03T13:55:08;6.97;;;2.10;;
35606;SDS011;21729;58.392;15.656;2022-11-03T13:57:36;5.95;;;1.88;;
35606;SDS011;21729;58.392;15.656;2022-11-03T14:00:03;6.35;;;2.13;;
35606;SDS011;21729;58.392;15.656;2022-11-03T14:02:32;6.55;;;2.35;;
35606;SDS011;21729;58.392;15.656;2022-11-03T14:04:59;8.70;;;2.30;;
35606;SDS011;21729;58.392;15.656;2022-11-03T14:07:26;6.03;;;2.10;;
35606;SDS011;21729;58.392;15.656;2022-11-03T14:09:53;5.53;;;2.25;;
35606;SDS011;21729;58.392;15.656;2022-11-03T14:12:21;7.30;;;2.30;;
35606;SDS011;21729;58.392;15.656;2022-11-03T14:14:59;7.60;;;2.10;;
35606;SDS011;21729;58.392;15.656;2022-11-03T14:17:26;6.32;;;1.80;;
35606;SDS011;21729;58.392;15.656;2022-11-03T14:19:54;8.17;;;2.20;;
35606;SDS011;21729;58.392;15.656;2022-11-03T14:22:21;7.63;;;2.10;;
35606;SDS011;21729;58.392;15.656;2022-11-03T14:24:49;6.13;;;1.98;;
35606;SDS011;21729;58.392;15.656;2022-11-03T14:27:16;8.02;;;2.47;;
35606;SDS011;21729;58.392;15.656;2022-11-03T14:29:46;9.87;;;2.40;;
35606;SDS011;21729;58.392;15.656;2022-11-03T14:32:14;9.45;;;2.30;;
35606;SDS011;21729;58.392;15.656;2022-11-03T14:34:42;9.50;;;2.47;;
35606;SDS011;21729;58.392;15.656;2022-11-03T14:37:09;7.25;;;2.30;;
35606;SDS011;21729;58.392;15.656;2022-11-03T14:39:37;9.20;;;2.40;;
35606;SDS011;21729;58.392;15.656;2022-11-03T14:42:05;5.70;;;2.13;;
35606;SDS011;21729;58.392;15.656;2022-11-03T14:44:39;8.48;;;2.42;;
35606;SDS011;21729;58.392;15.656;2022-11-03T14:47:08;6.07;;;2.08;;
35606;SDS011;21729;58.392;15.656;2022-11-03T14:49:36;8.02;;;2.28;;
35606;SDS011;21729;58.392;15.656;2022-11-03T14:52:04;9.02;;;2.92;;
35606;SDS011;21729;58.392;15.656;2022-11-03T14:54:32;6.95;;;2.30;;
35606;SDS011;21729;58.392;15.656;2022-11-03T14:57:00;6.95;;;2.50;;
35606;SDS011;21729;58.392;15.656;2022-11-03T14:59:27;9.43;;;2.40;;
35606;SDS011;21729;58.392;15.656;2022-11-03T15:01:54;7.55;;;2.22;;
35606;SDS011;21729;58.392;15.656;2022-11-03T15:04:23;8.73;;;2.40;;
35606;SDS011;21729;58.392;15.656;2022-11-03T15:06:51;9.05;;;2.45;;
35606;SDS011;21729;58.392;15.656;2022-11-03T15:09:18;6.87;;;2.27;;
35606;SDS011;21729;58.392;15.656;2022-11-03T15:11:45;10.80;;;2.58;;
35606;SDS011;21729;58.392;15.656;2022-11-03T15:14:12;4.60;;;2.30;;
35606;SDS011;21729;58.392;15.656;2022-11-03T15:16:39;4.97;;;2.20;;
35606;SDS011;21729;58.392;15.656;2022-11-03T15:19:08;9.40;;;2.50;;